Time;durP1;ratioP1;P1;durP2;ratioP2;P2;SDS_P1;SDS_P2;PMS_P1;PMS_P2;Temp;Humidity;BMP_temperature;BMP_pressure;BME280_temperature;BME280_humidity;BME280_pressure;Samples;Min_cycle;Max_cycle;Signal;HPM_P1;HPM_P2
2022/01/28 00:00:00;;;;;;;34.13;3.42;;;;;;;10.58;58.11;102808.97;4950635;29;20039;-70
2022/01/28 00:04:53;;;;;;;28.50;4.40;;;;;;;10.88;57.55;102804.56;4950486;28;20058;-69
2022/01/28 00:07:18;;;;;;;18.20;2.38;;;;;;;10.45;59.16;102829.38;4950320;28;20070;-70
2022/01/28 00:09:44;;;;;;;13.48;3.22;;;;;;;9.92;61.33;102818.47;4944834;29;20098;-70
2022/01/28 00:12:11;;;;;;;20.98;3.35;;;;;;;9.27;63.29;102821.28;4951296;29;20039;-70
2022/01/28 00:14:56;;;;;;;14.05;2.83;;;;;;;9.77;62.65;102807.59;4951677;28;20055;-71
2022/01/28 00:20:46;;;;;;;21.08;3.70;;;;;;;10.29;60.99;102829.44;4970725;28;20046;-70
2022/01/28 00:39:18;;;;;;;24.08;2.80;;;;;;;10.40;61.06;102832.59;4948909;28;20128;-71
2022/01/28 00:41:43;;;;;;;15.00;2.05;;;;;;;10.15;61.67;102841.75;4955347;29;20039;-70
2022/01/28 00:44:08;;;;;;;25.08;3.08;;;;;;;10.10;61.19;102854.03;4954691;28;20187;-71
2022/01/28 00:46:34;;;;;;;27.85;2.95;;;;;;;10.21;61.10;102837.53;4954496;28;20548;-69
2022/01/28 00:48:59;;;;;;;14.88;2.85;;;;;;;10.18;61.29;102854.84;4938543;29;20126;-69
2022/01/28 00:51:25;;;;;;;19.13;2.40;;;;;;;9.98;62.09;102852.69;4954142;28;20042;-70
2022/01/28 00:53:50;;;;;;;14.60;2.60;;;;;;;9.82;62.08;102855.41;4954347;29;20098;-69
2022/01/28 00:56:16;;;;;;;20.95;3.55;;;;;;;10.00;61.66;102856.91;4954418;28;20145;-70
2022/01/28 00:58:41;;;;;;;20.63;3.13;;;;;;;10.45;59.55;102869.69;4954012;28;20039;-69
2022/01/28 01:01:07;;;;;;;17.23;4.63;;;;;;;9.51;61.90;102869.53;4954192;28;20158;-69
2022/01/28 01:03:32;;;;;;;12.30;2.53;;;;;;;9.53;62.13;102877.44;4954232;28;20197;-69
2022/01/28 01:05:57;;;;;;;25.08;5.85;;;;;;;9.69;61.33;102880.94;4954162;28;20129;-69
2022/01/28 01:08:23;;;;;;;31.42;5.38;;;;;;;10.43;59.70;102877.94;4950489;29;20492;-69
2022/01/28 01:10:50;;;;;;;22.48;2.80;;;;;;;10.10;60.31;102880.91;4951941;29;20042;-70
2022/01/28 01:13:16;;;;;;;15.90;3.20;;;;;;;9.84;61.05;102886.47;4953720;29;20092;-69
2022/01/28 01:15:45;;;;;;;12.93;3.38;;;;;;;9.93;60.67;102880.06;4966551;28;20078;-70
2022/01/28 01:20:53;;;;;;;14.82;3.10;;;;;;;10.51;58.79;102888.63;4995726;28;20034;-69
2022/01/28 01:23:25;;;;;;;22.75;2.72;;;;;;;9.94;60.88;102897.03;4994927;28;20513;-70
2022/01/28 01:25:56;;;;;;;21.63;3.78;;;;;;;10.15;59.58;102897.34;4994715;28;20051;-69
2022/01/28 01:28:27;;;;;;;;;;;;;;;10.16;59.95;102899.03;4979037;28;20375;-69
2022/01/28 01:30:52;;;;;;;11.00;1.90;;;;;;;10.24;60.12;102913.25;4979699;28;19961;-68
2022/01/28 01:33:20;;;;;;;26.45;3.97;;;;;;;10.31;59.46;102913.41;4975468;28;20031;-70
2022/01/28 01:35:45;;;;;;;23.08;4.95;;;;;;;9.98;60.96;102922.53;4976078;28;20035;-69
2022/01/28 01:38:11;;;;;;;8.15;2.38;;;;;;;10.01;60.61;102927.53;4975713;28;20031;-69
2022/01/28 01:40:46;;;;;;;29.88;3.90;;;;;;;10.24;59.34;102925.88;4989723;28;20495;-69
2022/01/28 01:43:20;;;;;;;19.90;2.75;;;;;;;10.21;60.26;102935.09;4986409;28;20100;-69
2022/01/28 01:54:02;;;;;;;16.17;3.17;;;;;;;9.95;60.61;102960.47;4975209;28;20169;-69
2022/01/28 01:56:28;;;;;;;14.15;1.98;;;;;;;9.91;61.59;102970.69;4975649;28;20181;-69
2022/01/28 01:58:55;;;;;;;12.07;2.88;;;;;;;9.83;62.54;102962.66;4974917;28;20050;-68
2022/01/28 02:01:20;;;;;;;22.05;3.10;;;;;;;9.64;62.84;102971.03;4975028;28;20041;-68
2022/01/28 02:03:47;;;;;;;19.33;2.92;;;;;;;10.13;61.91;102962.00;4974839;28;20034;-69
2022/01/28 02:06:12;;;;;;;17.45;2.65;;;;;;;9.73;63.36;102972.72;4975045;28;20118;-70
2022/01/28 02:08:38;;;;;;;22.50;3.63;;;;;;;9.43;64.59;102968.00;4980706;28;20038;-68
2022/01/28 02:11:03;;;;;;;17.92;4.10;;;;;;;9.66;63.17;102972.56;5013822;28;20034;-70
2022/01/28 02:13:30;;;;;;;10.00;2.47;;;;;;;8.70;65.79;102961.59;5013787;28;20405;-69
2022/01/28 02:15:57;;;;;;;12.00;3.55;;;;;;;9.11;64.39;102982.19;5011922;28;20052;-68
2022/01/28 02:18:24;;;;;;;12.77;3.22;;;;;;;9.03;64.58;102986.69;4994163;28;20037;-71
2022/01/28 02:20:53;;;;;;;10.50;3.08;;;;;;;9.57;62.49;102981.59;4994519;28;20042;-68
2022/01/28 02:23:21;;;;;;;17.52;3.03;;;;;;;9.39;62.63;102983.63;4993924;28;20490;-70
2022/01/28 02:25:46;;;;;;;18.25;3.03;;;;;;;9.45;62.26;102979.41;4993528;28;20146;-70
2022/01/28 02:28:15;;;;;;;14.13;3.63;;;;;;;9.58;62.24;102994.03;4993888;28;20121;-69
2022/01/28 02:30:41;;;;;;;20.85;2.80;;;;;;;9.27;63.49;103002.84;4980193;28;20499;-70
2022/01/28 02:33:26;;;;;;;9.07;2.38;;;;;;;9.27;63.61;103011.75;4972444;28;20058;-68
2022/01/28 02:35:52;;;;;;;24.83;4.65;;;;;;;9.25;63.48;103007.53;4974698;28;20042;-68
2022/01/28 02:38:21;;;;;;;12.15;4.40;;;;;;;9.45;62.53;103006.25;4974212;28;20045;-70
2022/01/28 02:40:54;;;;;;;15.98;3.30;;;;;;;9.12;63.79;103010.69;4974558;28;20046;-69
2022/01/28 02:45:56;;;;;;;13.25;3.08;;;;;;;9.60;62.36;103010.81;4993651;28;20050;-69
2022/01/28 02:48:28;;;;;;;14.88;3.08;;;;;;;10.14;60.70;103005.81;4975582;28;20038;-70
2022/01/28 02:53:57;;;;;;;16.00;2.30;;;;;;;9.81;61.89;103013.00;4932565;29;20066;-69
2022/01/28 02:58:55;;;;;;;21.45;4.00;;;;;;;9.36;63.36;103020.63;4932971;29;20044;-69
2022/01/28 03:01:21;;;;;;;22.08;3.70;;;;;;;9.31;63.53;103031.03;4932729;29;20421;-69
2022/01/28 03:03:48;;;;;;;11.20;3.58;;;;;;;9.28;63.87;103032.19;4932823;29;20162;-71
2022/01/28 03:06:15;;;;;;;22.58;2.90;;;;;;;9.53;62.65;103031.25;4926502;29;20094;-69
2022/01/28 03:08:43;;;;;;;25.92;3.55;;;;;;;9.72;62.24;103027.44;4926798;29;20056;-68
2022/01/28 03:16:16;;;;;;;18.58;2.17;;;;;;;9.53;62.92;103033.09;4932532;29;20075;-71
2022/01/28 03:21:24;;;;;;;7.20;1.02;;;;;;;9.24;64.22;103043.41;4932217;29;20080;-70
2022/01/28 03:23:50;;;;;;;12.75;3.10;;;;;;;9.46;63.08;103042.81;4932659;29;20039;-68
2022/01/28 03:26:16;;;;;;;20.23;2.88;;;;;;;9.77;62.50;103041.19;4931807;29;20043;-69
2022/01/28 03:28:42;;;;;;;14.73;2.40;;;;;;;9.40;63.29;103065.78;4981536;28;20121;-70
2022/01/28 03:31:07;;;;;;;14.27;2.00;;;;;;;9.73;61.98;103054.09;4991880;28;20243;-69
2022/01/28 03:33:33;;;;;;;21.00;2.53;;;;;;;9.28;63.12;103037.56;4992121;28;20084;-69
2022/01/28 03:36:01;;;;;;;13.23;2.63;;;;;;;9.52;62.78;103048.38;4991828;28;20117;-69
2022/01/28 03:38:26;;;;;;;11.63;2.47;;;;;;;9.20;62.92;103055.50;4992308;28;20031;-70
2022/01/28 03:40:55;;;;;;;11.57;2.22;;;;;;;9.68;61.42;103053.78;4991822;28;20076;-70
2022/01/28 03:43:20;;;;;;;13.57;2.22;;;;;;;10.04;60.27;103056.16;4992222;28;20042;-69
2022/01/28 03:45:45;;;;;;;19.30;2.40;;;;;;;9.68;60.83;103064.50;4993159;28;20039;-70
2022/01/28 03:48:11;;;;;;;9.75;1.50;;;;;;;9.06;62.25;103056.09;4993039;28;20049;-71
2022/01/28 03:50:36;;;;;;;11.85;2.13;;;;;;;9.32;61.19;103071.09;4993678;28;20049;-70
2022/01/28 03:53:04;;;;;;;8.85;2.00;;;;;;;9.16;61.88;103070.22;4992424;28;20097;-69
2022/01/28 03:55:30;;;;;;;16.92;2.38;;;;;;;9.57;60.51;103069.34;4993110;28;20038;-70
2022/01/28 03:57:55;;;;;;;17.13;1.80;;;;;;;9.59;60.15;103067.34;4992675;28;20045;-69
2022/01/28 04:00:25;;;;;;;11.02;2.90;;;;;;;9.56;60.13;103079.25;4992615;28;20080;-69
2022/01/28 04:02:58;;;;;;;12.30;1.77;;;;;;;9.40;60.51;103081.88;5006989;28;20034;-68
2022/01/28 04:13:29;;;;;;;18.27;2.85;;;;;;;9.35;60.24;103089.59;4992332;28;20565;-69
2022/01/28 04:18:38;;;;;;;14.00;2.30;;;;;;;9.71;60.16;103098.22;4972784;28;20118;-69
2022/01/28 04:21:04;;;;;;;10.18;1.52;;;;;;;9.42;60.54;103100.50;4972917;28;20113;-70
2022/01/28 04:23:29;;;;;;;7.82;1.63;;;;;;;9.28;61.54;103091.22;4972971;28;20031;-69
2022/01/28 04:25:54;;;;;;;17.38;3.35;;;;;;;9.48;61.49;103099.84;4972607;28;20102;-70
2022/01/28 04:28:20;;;;;;;16.33;1.92;;;;;;;9.18;62.47;103097.72;4972498;28;20062;-69
2022/01/28 04:30:47;;;;;;;19.02;4.20;;;;;;;9.49;60.98;103102.34;4986609;28;20058;-69
2022/01/28 04:33:12;;;;;;;18.80;2.25;;;;;;;9.35;61.91;103103.00;4992273;28;20089;-69
2022/01/28 04:35:38;;;;;;;13.80;3.13;;;;;;;9.36;62.19;103107.34;4992374;28;20076;-69
2022/01/28 04:38:29;;;;;;;14.77;2.28;;;;;;;9.38;61.70;103109.84;4991930;28;20522;-68
2022/01/28 04:43:34;;;;;;;12.75;2.10;;;;;;;9.81;61.07;103131.13;4991043;28;20119;-70
2022/01/28 04:48:38;;;;;;;18.20;4.32;;;;;;;9.43;61.71;103140.59;4992323;28;20109;-70
2022/01/28 04:56:28;;;;;;;16.25;2.58;;;;;;;9.61;60.88;103132.44;4992150;28;20050;-69
2022/01/28 05:01:55;;;;;;;20.15;2.15;;;;;;;9.35;61.31;103137.88;4991117;28;20038;-68
2022/01/28 05:27:38;;;;;;;5.63;1.58;;;;;;;9.52;61.20;103162.94;5014639;28;20158;-70
2022/01/28 05:30:06;;;;;;;14.05;2.90;;;;;;;9.08;63.37;103156.81;4990211;28;20031;-68
2022/01/28 05:32:31;;;;;;;15.23;2.08;;;;;;;8.80;63.19;103169.53;4994040;28;20034;-70
2022/01/28 05:34:56;;;;;;;17.08;2.45;;;;;;;9.16;62.68;103177.53;4976659;28;20652;-69
2022/01/28 05:37:22;;;;;;;12.77;2.08;;;;;;;9.33;61.69;103180.13;4995196;28;20144;-69
2022/01/28 05:39:47;;;;;;;20.55;5.60;;;;;;;9.55;60.54;103184.91;5004919;28;20038;-70
2022/01/28 05:42:13;;;;;;;20.02;3.10;;;;;;;9.04;62.15;103179.59;5014570;28;20527;-69
2022/01/28 05:44:38;;;;;;;18.42;2.92;;;;;;;9.14;61.65;103183.00;5014844;28;20037;-75
2022/01/28 05:47:04;;;;;;;17.52;3.05;;;;;;;9.52;60.72;103187.06;5013137;28;20037;-69
2022/01/28 05:49:30;;;;;;;18.35;3.08;;;;;;;9.27;61.13;103198.69;5014447;28;20096;-69
2022/01/28 05:51:56;;;;;;;27.02;4.57;;;;;;;9.18;62.23;103197.78;5014333;28;20059;-70
2022/01/28 05:54:21;;;;;;;21.30;2.90;;;;;;;9.43;60.70;103207.69;5014064;28;20034;-70
2022/01/28 05:56:46;;;;;;;22.70;3.85;;;;;;;8.81;62.49;103202.56;5012888;28;20052;-69
2022/01/28 05:59:12;;;;;;;27.92;3.97;;;;;;;8.97;61.98;103204.53;5014239;28;20064;-69
2022/01/28 06:01:37;;;;;;;18.65;3.13;;;;;;;9.30;60.72;103206.41;5007089;28;20494;-68
2022/01/28 06:04:04;;;;;;;13.45;2.53;;;;;;;9.11;61.63;103212.00;4994821;28;20125;-69
2022/01/28 06:06:30;;;;;;;14.80;2.80;;;;;;;8.99;61.24;103213.25;4994213;28;20038;-69
2022/01/28 06:08:56;;;;;;;20.17;2.85;;;;;;;8.36;62.93;103216.09;4976824;28;20500;-68
2022/01/28 06:11:23;;;;;;;16.10;3.60;;;;;;;9.30;60.22;103209.94;4994353;28;20157;-69
2022/01/28 06:13:49;;;;;;;22.60;3.22;;;;;;;9.59;58.76;103223.84;4994115;28;20042;-69
2022/01/28 06:16:16;;;;;;;20.08;2.95;;;;;;;9.20;59.86;103224.50;4994330;28;20102;-70
2022/01/28 06:18:42;;;;;;;18.38;3.30;;;;;;;9.65;58.55;103233.13;5000854;28;20446;-69
2022/01/28 06:21:08;;;;;;;19.50;2.92;;;;;;;9.44;58.88;103248.75;5003102;28;20060;-69
2022/01/28 06:23:34;;;;;;;22.77;3.35;;;;;;;10.21;56.15;103254.84;5007615;28;20430;-69
2022/01/28 06:26:00;;;;;;;25.25;4.13;;;;;;;10.68;54.44;103251.56;5012999;28;20061;-69
2022/01/28 06:28:26;;;;;;;16.10;2.78;;;;;;;9.70;57.78;103260.31;5012676;28;20088;-69
2022/01/28 06:30:52;;;;;;;29.25;3.17;;;;;;;9.99;56.67;103265.31;4998263;28;20085;-68
2022/01/28 06:33:17;;;;;;;20.92;3.58;;;;;;;9.17;58.30;103276.59;5004638;28;20211;-69
2022/01/28 06:35:44;;;;;;;26.80;4.30;;;;;;;9.95;56.26;103278.22;4998459;28;20152;-69
2022/01/28 06:38:10;;;;;;;16.85;4.13;;;;;;;9.42;57.50;103273.09;4993744;28;20118;-70
2022/01/28 06:40:36;;;;;;;23.85;4.20;;;;;;;9.62;57.12;103277.22;4993354;28;20038;-70
2022/01/28 06:43:02;;;;;;;18.63;3.65;;;;;;;9.07;58.52;103291.09;4975260;28;20568;-70
2022/01/28 06:45:27;;;;;;;28.60;2.90;;;;;;;8.91;59.50;103290.94;4993080;28;20485;-70
2022/01/28 06:47:53;;;;;;;29.23;2.60;;;;;;;9.38;57.95;103297.69;4993477;28;20031;-69
2022/01/28 06:50:18;;;;;;;21.90;5.78;;;;;;;10.47;54.38;103301.28;4996266;28;20101;-70
2022/01/28 06:52:44;;;;;;;19.05;3.22;;;;;;;10.25;54.89;103314.47;4993229;28;20505;-68
2022/01/28 06:55:12;;;;;;;14.57;2.10;;;;;;;9.66;56.56;103321.56;4993164;28;20514;-69
2022/01/28 06:57:38;;;;;;;27.38;2.90;;;;;;;10.55;53.71;103311.22;4992877;28;20141;-71
2022/01/28 07:00:06;;;;;;;15.20;3.63;;;;;;;10.23;54.82;103320.03;4993369;28;20027;-70
2022/01/28 07:02:31;;;;;;;21.90;2.50;;;;;;;9.60;56.73;103321.34;4993803;28;20062;-69
2022/01/28 07:04:57;;;;;;;29.92;3.65;;;;;;;10.23;54.82;103320.03;4993140;28;20573;-69
2022/01/28 07:07:24;;;;;;;23.45;4.30;;;;;;;10.07;54.98;103329.81;4995743;28;20034;-69
2022/01/28 07:09:51;;;;;;;29.88;6.15;;;;;;;10.00;54.73;103318.03;5007276;28;20502;-70
2022/01/28 07:12:17;;;;;;;23.63;3.20;;;;;;;9.86;55.36;103324.00;5010903;28;20112;-70
2022/01/28 07:14:42;;;;;;;21.58;4.03;;;;;;;9.71;55.98;103323.75;4993379;28;20145;-70
2022/01/28 07:17:08;;;;;;;13.88;2.60;;;;;;;9.91;55.41;103324.34;4992930;28;20455;-69
2022/01/28 07:19:33;;;;;;;25.73;4.47;;;;;;;9.29;57.09;103339.75;4993154;28;20541;-69
2022/01/28 07:21:58;;;;;;;22.65;3.30;;;;;;;9.26;57.12;103347.25;4993172;28;20035;-70
2022/01/28 07:24:24;;;;;;;19.00;2.58;;;;;;;9.68;54.74;103337.50;4992717;28;20042;-70
2022/01/28 07:26:51;;;;;;;21.60;3.75;;;;;;;9.71;54.99;103339.84;4991691;28;20046;-68
2022/01/28 07:29:17;;;;;;;29.88;4.55;;;;;;;9.71;54.46;103348.75;4975112;28;20066;-69
2022/01/28 07:31:43;;;;;;;16.70;3.15;;;;;;;10.43;53.25;103353.69;4996210;28;20488;-68
2022/01/28 07:34:08;;;;;;;18.00;2.70;;;;;;;10.69;51.88;103355.44;4991673;28;20121;-69
2022/01/28 07:36:35;;;;;;;11.73;3.22;;;;;;;10.63;52.50;103353.41;4990410;28;20030;-68
2022/01/28 07:39:00;;;;;;;16.25;2.70;;;;;;;10.38;53.22;103356.00;4992282;28;20031;-69
2022/01/28 07:41:26;;;;;;;15.52;2.70;;;;;;;10.59;52.77;103359.09;4992452;28;20073;-70
2022/01/28 07:43:52;;;;;;;24.77;4.78;;;;;;;10.54;52.59;103363.28;4976596;28;20498;-71
2022/01/28 07:46:18;;;;;;;24.63;3.55;;;;;;;10.41;53.08;103365.59;4994229;28;20072;-70
2022/01/28 07:48:43;;;;;;;17.88;4.15;;;;;;;10.23;53.27;103363.00;4992883;28;20067;-70
2022/01/28 07:51:09;;;;;;;22.08;3.58;;;;;;;10.07;53.97;103370.09;4989694;28;20053;-71
2022/01/28 07:53:34;;;;;;;16.13;3.95;;;;;;;9.98;53.89;103377.31;4988520;28;21017;-72
2022/01/28 07:55:59;;;;;;;22.30;3.65;;;;;;;10.41;52.96;103387.09;4973225;28;20046;-70
2022/01/28 07:58:25;;;;;;;30.02;3.80;;;;;;;10.31;53.31;103384.56;4990925;28;20061;-70
2022/01/28 08:00:50;;;;;;;26.27;3.97;;;;;;;10.42;52.78;103389.63;5000606;28;20611;-70
2022/01/28 08:03:16;;;;;;;24.45;3.70;;;;;;;10.17;53.85;103403.97;4984310;28;20034;-70
2022/01/28 08:05:41;;;;;;;20.48;3.15;;;;;;;10.24;53.47;103399.63;4986825;28;20026;-71
2022/01/28 08:08:08;;;;;;;20.33;4.20;;;;;;;10.22;53.34;103404.31;4987323;28;20065;-70
2022/01/28 08:10:35;;;;;;;19.25;3.17;;;;;;;10.06;53.71;103401.53;4990859;28;20043;-70
2022/01/28 08:13:05;;;;;;;28.13;3.67;;;;;;;10.20;53.53;103411.69;4988572;28;20046;-70
2022/01/28 08:15:31;;;;;;;17.38;3.33;;;;;;;10.18;54.09;103413.69;4991069;28;20052;-69
2022/01/28 08:17:57;;;;;;;20.83;3.60;;;;;;;10.16;54.07;103406.81;4988782;28;20066;-70
2022/01/28 08:20:22;;;;;;;15.07;3.47;;;;;;;10.27;53.50;103407.38;4987283;28;20088;-70
2022/01/28 08:22:54;;;;;;;23.75;3.47;;;;;;;10.28;53.81;103408.22;4987622;28;20521;-71
2022/01/28 08:25:22;;;;;;;28.23;3.92;;;;;;;10.34;54.18;103402.19;4987418;28;20486;-70
2022/01/28 08:27:49;;;;;;;21.88;3.45;;;;;;;10.27;54.58;103404.69;4988673;28;20042;-72
2022/01/28 08:30:16;;;;;;;17.25;3.17;;;;;;;10.31;54.85;103410.56;4988684;28;20061;-69
2022/01/28 08:32:42;;;;;;;28.50;4.35;;;;;;;10.26;54.92;103413.72;4991283;28;20402;-71
2022/01/28 08:35:08;;;;;;;29.00;3.65;;;;;;;10.13;55.35;103415.19;4990360;28;20042;-70
2022/01/28 08:37:34;;;;;;;24.05;3.38;;;;;;;10.32;54.78;103425.69;4990850;28;20499;-70
2022/01/28 08:40:00;;;;;;;17.50;2.83;;;;;;;10.36;55.00;103421.66;4984139;28;20035;-69
2022/01/28 08:42:26;;;;;;;28.40;4.00;;;;;;;10.16;56.12;103425.63;4990423;28;20165;-70
2022/01/28 08:44:51;;;;;;;26.20;3.85;;;;;;;10.46;55.31;103423.25;4989402;28;20022;-69
2022/01/28 08:47:17;;;;;;;26.75;3.38;;;;;;;10.55;54.77;103426.81;4989809;28;20065;-70
2022/01/28 08:49:42;;;;;;;30.92;3.65;;;;;;;10.19;56.03;103430.66;4988069;28;20042;-70
2022/01/28 08:52:08;;;;;;;28.05;3.13;;;;;;;10.58;54.58;103434.56;4992418;28;20038;-69
2022/01/28 08:54:33;;;;;;;21.60;4.68;;;;;;;10.79;53.69;103434.13;4985868;28;20129;-71
2022/01/28 08:56:58;;;;;;;18.08;3.65;;;;;;;11.05;53.04;103437.56;4988686;28;20030;-70
2022/01/28 08:59:24;;;;;;;20.23;4.50;;;;;;;10.64;54.50;103439.28;4992107;28;20371;-70
2022/01/28 09:01:49;;;;;;;24.80;4.65;;;;;;;10.33;55.69;103444.34;4992988;28;20113;-71
2022/01/28 09:04:14;;;;;;;12.30;3.03;;;;;;;10.46;55.90;103434.00;4990965;28;20071;-70
2022/01/28 09:06:40;;;;;;;19.42;2.70;;;;;;;10.76;55.01;103429.91;4992554;28;20031;-70
2022/01/28 09:09:06;;;;;;;16.60;3.70;;;;;;;10.83;54.75;103451.63;4993261;28;20499;-70
2022/01/28 09:11:45;;;;;;;25.90;4.25;;;;;;;10.77;55.13;103444.22;4992747;28;20108;-71
2022/01/28 09:14:14;;;;;;;24.83;4.13;;;;;;;10.53;55.65;103440.41;4989675;28;20069;-71
2022/01/28 09:16:40;;;;;;;14.80;4.07;;;;;;;10.85;55.10;103442.38;4991147;28;20031;-70
2022/01/28 09:19:06;;;;;;;21.77;3.92;;;;;;;10.80;55.57;103454.63;4991993;28;20030;-70
2022/01/28 09:21:32;;;;;;;24.13;4.32;;;;;;;10.95;55.37;103453.84;4973863;28;20069;-70
2022/01/28 09:23:57;;;;;;;14.52;3.22;;;;;;;10.84;56.32;103453.31;4991958;28;20122;-71
2022/01/28 09:26:23;;;;;;;20.77;3.53;;;;;;;11.24;55.08;103459.63;4992820;28;20096;-70
2022/01/28 09:28:48;;;;;;;17.40;3.00;;;;;;;10.88;56.55;103450.13;4991961;28;20050;-71
2022/01/28 09:31:14;;;;;;;18.65;3.88;;;;;;;11.46;54.69;103460.81;4989005;28;20038;-70
2022/01/28 09:33:39;;;;;;;28.13;3.63;;;;;;;11.50;54.71;103472.94;4988391;28;20035;-72
2022/01/28 09:36:06;;;;;;;17.85;3.90;;;;;;;11.62;54.55;103470.75;4991963;28;20038;-71
2022/01/28 09:38:32;;;;;;;22.95;6.13;;;;;;;11.24;55.50;103472.25;5001975;28;20489;-70
2022/01/28 09:41:03;;;;;;;17.23;2.78;;;;;;;11.23;55.87;103474.09;4997091;28;20035;-71
2022/01/28 09:43:28;;;;;;;;;;;;;;;11.11;55.83;103477.25;4992599;28;20096;-70
2022/01/28 09:45:54;;;;;;;18.85;3.55;;;;;;;11.12;55.87;103474.44;4991923;28;19918;-69
2022/01/28 09:48:20;;;;;;;25.08;3.55;;;;;;;11.26;55.45;103487.22;4995617;28;20552;-70
2022/01/28 09:50:46;;;;;;;25.17;4.10;;;;;;;11.66;54.81;103486.47;4992283;28;20037;-71
2022/01/28 09:53:12;;;;;;;25.30;3.47;;;;;;;11.55;55.38;103485.91;4992438;28;20585;-70
2022/01/28 09:55:39;;;;;;;24.75;4.07;;;;;;;11.37;55.52;103489.59;4990084;28;20116;-70
2022/01/28 09:58:05;;;;;;;25.85;3.92;;;;;;;11.72;55.00;103491.19;4990050;28;20054;-70
2022/01/28 10:00:33;;;;;;;21.35;3.80;;;;;;;11.31;56.27;103498.34;4990754;28;20038;-70
2022/01/28 10:03:00;;;;;;;15.82;2.60;;;;;;;11.05;57.35;103496.75;4990079;28;20418;-70
2022/01/28 10:05:32;;;;;;;30.30;4.85;;;;;;;10.99;57.54;103490.19;4990326;28;20051;-70
2022/01/28 10:08:22;;;;;;;26.77;4.32;;;;;;;11.20;57.08;103487.06;4989141;28;20081;-71
2022/01/28 10:10:49;;;;;;;22.73;3.45;;;;;;;11.52;56.39;103492.47;4981188;28;20133;-72
2022/01/28 10:13:19;;;;;;;20.70;3.95;;;;;;;12.23;54.45;103487.25;4983743;28;20053;-71
2022/01/28 10:15:56;;;;;;;24.30;3.67;;;;;;;12.31;54.38;103498.88;4983599;28;20129;-71
2022/01/28 10:18:35;;;;;;;26.23;5.45;;;;;;;11.91;55.47;103496.22;4983746;28;20035;-71
2022/01/28 10:21:00;;;;;;;15.07;3.50;;;;;;;12.44;54.16;103498.34;4991259;28;20035;-71
2022/01/28 10:23:26;;;;;;;25.13;3.28;;;;;;;11.84;54.63;103500.63;4989122;28;20030;-71
2022/01/28 10:25:56;;;;;;;35.70;3.65;;;;;;;12.08;54.71;103507.84;4991351;28;20732;-70
2022/01/28 10:28:22;;;;;;;21.75;4.57;;;;;;;11.40;56.24;103515.34;4989166;28;20133;-71
2022/01/28 10:30:47;;;;;;;26.58;4.40;;;;;;;11.86;55.43;103519.31;4987561;28;20105;-71
2022/01/28 10:33:15;;;;;;;18.92;3.90;;;;;;;12.29;53.80;103505.44;4991537;28;20057;-72
2022/01/28 10:35:56;;;;;;;28.50;3.53;;;;;;;12.51;53.72;103518.22;4991891;28;20018;-72
2022/01/28 10:38:42;;;;;;;24.60;2.97;;;;;;;11.93;55.58;103510.38;4991349;28;20050;-71
2022/01/28 10:41:23;;;;;;;21.67;2.88;;;;;;;12.24;54.83;103524.00;4990073;28;20466;-71
2022/01/28 10:43:55;;;;;;;20.70;2.85;;;;;;;11.58;56.55;103523.31;4992186;28;20039;-72
2022/01/28 10:46:34;;;;;;;14.70;3.38;;;;;;;12.00;56.18;103518.63;4990246;28;20062;-71
2022/01/28 10:49:08;;;;;;;27.20;3.22;;;;;;;11.85;56.20;103517.63;4989026;28;20061;-71
2022/01/28 10:51:45;;;;;;;23.20;4.57;;;;;;;12.09;55.41;103517.59;4990735;28;20068;-70
2022/01/28 10:54:13;;;;;;;23.45;3.85;;;;;;;11.69;55.65;103521.16;4994528;28;20112;-70
2022/01/28 10:56:54;;;;;;;23.23;4.57;;;;;;;11.65;55.77;103510.84;4991910;28;20044;-70
2022/01/28 10:59:25;;;;;;;18.42;2.97;;;;;;;11.46;56.57;103501.22;4997202;28;20026;-71
2022/01/28 11:01:51;;;;;;;29.08;4.80;;;;;;;12.14;54.58;103502.63;5004939;28;20033;-71
2022/01/28 11:04:18;;;;;;;23.55;3.60;;;;;;;12.37;53.55;103489.25;5005999;28;20034;-71
2022/01/28 11:06:44;;;;;;;24.48;3.95;;;;;;;12.30;53.71;103490.97;5003756;28;20060;-70
2022/01/28 11:09:12;;;;;;;24.20;4.78;;;;;;;11.89;54.35;103482.06;4995681;28;20030;-71
2022/01/28 11:11:38;;;;;;;24.40;3.80;;;;;;;12.28;53.36;103484.91;4991926;28;20105;-71
2022/01/28 11:14:05;;;;;;;21.83;3.95;;;;;;;12.35;51.95;103484.03;4991442;28;20046;-71
2022/01/28 11:16:31;;;;;;;23.80;4.50;;;;;;;12.85;51.81;103478.31;4990981;28;20123;-73
2022/01/28 11:18:57;;;;;;;22.73;4.63;;;;;;;12.51;51.89;103476.91;4986339;28;20039;-72
2022/01/28 11:21:41;;;;;;;28.98;3.45;;;;;;;12.86;51.90;103474.56;4990037;28;20049;-70
2022/01/28 11:24:16;;;;;;;31.33;4.70;;;;;;;12.74;52.07;103467.03;4989913;28;20395;-70
2022/01/28 11:27:00;;;;;;;29.27;4.15;;;;;;;12.57;52.08;103471.66;4995521;28;20038;-71
2022/01/28 11:29:28;;;;;;;26.17;3.08;;;;;;;12.57;52.31;103470.81;4987770;28;20074;-71
2022/01/28 11:31:56;;;;;;;21.60;3.65;;;;;;;12.31;53.19;103455.75;4980833;28;20128;-71
2022/01/28 11:34:26;;;;;;;27.98;4.25;;;;;;;12.46;52.63;103455.84;4986483;28;20066;-70
2022/01/28 11:37:01;;;;;;;20.92;3.25;;;;;;;12.44;52.16;103457.06;4982234;28;20117;-71
2022/01/28 11:39:34;;;;;;;27.40;3.47;;;;;;;12.66;52.18;103456.31;4985214;28;20046;-71
2022/01/28 11:42:10;;;;;;;26.42;4.03;;;;;;;12.31;52.79;103452.19;4977487;28;20038;-70
2022/01/28 11:44:39;;;;;;;27.20;3.38;;;;;;;13.01;51.36;103459.31;4981343;28;20035;-72
2022/01/28 11:47:05;;;;;;;13.43;3.10;;;;;;;13.18;51.06;103452.00;4983990;28;20043;-71
2022/01/28 11:49:30;;;;;;;24.92;3.70;;;;;;;13.28;50.43;103458.00;4978936;28;20041;-71
2022/01/28 11:51:55;;;;;;;22.45;4.28;;;;;;;13.12;50.14;103463.50;4977614;28;20449;-69
2022/01/28 11:54:25;;;;;;;17.92;3.58;;;;;;;12.23;52.93;103460.31;4981842;28;20030;-72
2022/01/28 11:56:57;;;;;;;15.80;2.87;;;;;;;12.59;51.93;103458.00;4977274;28;20446;-70
2022/01/28 11:59:27;;;;;;;28.02;3.33;;;;;;;12.52;52.61;103451.63;4976855;28;20039;-71
2022/01/28 12:01:52;;;;;;;28.65;4.65;;;;;;;12.26;51.95;103439.22;4978174;28;20149;-70
2022/01/28 12:04:26;;;;;;;20.10;3.33;;;;;;;12.32;52.19;103443.94;4986193;28;20167;-71
2022/01/28 12:06:59;;;;;;;17.98;3.03;;;;;;;11.97;53.30;103422.78;4982356;28;20585;-72
2022/01/28 12:09:26;;;;;;;21.17;3.25;;;;;;;12.55;51.69;103419.75;4981114;28;20507;-71
2022/01/28 12:11:51;;;;;;;22.20;4.28;;;;;;;12.56;51.89;103418.72;4991124;28;20034;-71
2022/01/28 12:14:18;;;;;;;18.70;3.35;;;;;;;12.97;51.23;103413.97;4980170;28;20411;-71
2022/01/28 12:16:47;;;;;;;20.05;3.70;;;;;;;12.26;52.82;103423.03;4981001;28;20053;-71
2022/01/28 12:19:20;;;;;;;22.85;8.50;;;;;;;12.76;51.35;103413.75;4986810;28;20085;-71
2022/01/28 12:22:07;;;;;;;24.92;6.90;;;;;;;12.64;51.91;103413.28;4979375;28;20034;-72
2022/01/28 12:24:34;;;;;;;22.73;4.45;;;;;;;12.15;52.90;103412.66;4981185;28;20035;-70
2022/01/28 12:27:06;;;;;;;22.80;3.45;;;;;;;12.82;51.80;103408.47;4984864;28;20041;-70
2022/01/28 12:29:50;;;;;;;21.65;5.07;;;;;;;12.78;51.26;103396.38;4987032;28;20442;-70
2022/01/28 12:32:22;;;;;;;12.15;2.63;;;;;;;12.13;53.19;103400.34;4989109;28;20034;-70
2022/01/28 12:34:47;;;;;;;19.38;2.92;;;;;;;13.02;51.08;103384.56;4984019;28;20038;-70
2022/01/28 12:37:13;;;;;;;21.77;3.58;;;;;;;13.01;50.65;103388.31;4983292;28;20034;-70
2022/01/28 12:39:50;;;;;;;14.90;3.35;;;;;;;12.67;50.97;103388.69;4987107;28;20046;-71
2022/01/28 12:42:26;;;;;;;23.33;3.15;;;;;;;12.81;49.95;103376.28;4979395;28;20056;-70
2022/01/28 12:44:54;;;;;;;12.80;3.05;;;;;;;13.21;49.26;103381.41;4976375;28;20031;-70
2022/01/28 12:47:21;;;;;;;13.23;2.92;;;;;;;13.42;48.59;103388.88;4979082;28;20524;-71
2022/01/28 12:49:53;;;;;;;19.85;3.20;;;;;;;12.75;49.77;103380.53;4989914;28;20573;-70
2022/01/28 12:52:19;;;;;;;20.38;3.28;;;;;;;13.28;49.37;103368.03;4982295;28;20122;-70
2022/01/28 12:54:46;;;;;;;21.80;3.95;;;;;;;13.18;48.99;103371.84;4981815;28;20384;-70
2022/01/28 12:57:19;;;;;;;18.70;4.60;;;;;;;13.53;47.66;103377.63;4979501;28;20034;-70
2022/01/28 12:59:46;;;;;;;24.77;2.78;;;;;;;12.26;50.50;103379.09;4984383;28;20068;-70